Time;durP1;ratioP1;P1;durP2;ratioP2;P2;SDS_P1;SDS_P2;PMS_P1;PMS_P2;Temp;Humidity;BMP_temperature;BMP_pressure;BME280_temperature;BME280_humidity;BME280_pressure;Samples;Min_cycle;Max_cycle;Signal;HPM_P1;HPM_P2
2023/05/18 00:00:45;;;;;;;7.28;4.55;;;;;;;13.50;nan;-24193.91;4997421;28;20184;-66
2023/05/18 00:03:11;;;;;;;8.43;5.22;;;;;;;13.57;nan;-24195.75;4990807;28;20255;-64
2023/05/18 00:05:36;;;;;;;12.00;5.97;;;;;;;13.75;nan;-24200.81;4992058;28;20185;-65
2023/05/18 00:08:02;;;;;;;9.80;5.70;;;;;;;13.97;nan;-24206.97;4993155;28;20169;-66
2023/05/18 00:10:28;;;;;;;10.98;5.68;;;;;;;13.71;nan;-24199.69;4992590;28;20212;-66
2023/05/18 00:12:54;;;;;;;12.35;6.05;;;;;;;13.80;nan;-24202.06;4992584;28;20628;-67
2023/05/18 00:15:20;;;;;;;9.07;5.38;;;;;;;13.90;nan;-24204.88;4992281;28;20225;-66
2023/05/18 00:17:45;;;;;;;10.15;5.50;;;;;;;13.73;nan;-24200.25;4992210;28;20172;-66
2023/05/18 00:20:11;;;;;;;8.95;5.53;;;;;;;13.52;nan;-24194.34;4991953;28;20177;-64
2023/05/18 00:22:41;;;;;;;14.55;6.18;;;;;;;13.62;nan;-24197.28;4992397;28;20169;-63
2023/05/18 00:25:07;;;;;;;11.85;5.68;;;;;;;13.57;nan;-24195.75;4992218;28;20576;-64
2023/05/18 00:27:32;;;;;;;12.73;6.32;;;;;;;13.64;nan;-24197.72;4995360;28;20686;-66
2023/05/18 00:29:58;;;;;;;15.25;6.75;;;;;;;13.44;nan;-24192.25;4995812;28;20664;-66
2023/05/18 00:32:23;;;;;;;10.20;5.57;;;;;;;13.46;nan;-24192.66;4995781;28;20169;-67
2023/05/18 00:34:48;;;;;;;12.32;6.47;;;;;;;13.22;nan;-24186.19;4996402;28;20211;-64
2023/05/18 00:37:14;;;;;;;11.80;6.72;;;;;;;13.11;nan;-24183.09;5000874;28;20208;-65
2023/05/18 00:39:39;;;;;;;13.38;6.70;;;;;;;13.36;nan;-24190.00;4996383;28;20185;-67
2023/05/18 00:42:05;;;;;;;12.32;6.75;;;;;;;13.31;nan;-24188.59;4996147;28;20184;-65
2023/05/18 00:44:30;;;;;;;12.88;6.53;;;;;;;12.94;nan;-24178.19;4995893;28;20176;-64
2023/05/18 00:46:55;;;;;;;11.80;6.65;;;;;;;13.06;nan;-24181.69;4995534;28;20260;-67
2023/05/18 00:49:21;;;;;;;11.30;6.72;;;;;;;13.17;nan;-24184.66;4996000;28;20707;-65
2023/05/18 00:51:46;;;;;;;14.85;7.57;;;;;;;13.11;nan;-24182.97;4999374;28;20208;-66
2023/05/18 00:54:13;;;;;;;15.18;7.10;;;;;;;13.10;nan;-24182.69;4995343;28;20184;-65
2023/05/18 00:56:40;;;;;;;14.75;8.23;;;;;;;12.69;nan;-24171.44;4995495;28;20686;-65
2023/05/18 00:59:08;;;;;;;18.83;9.15;;;;;;;13.01;nan;-24180.28;4995322;28;20176;-64
2023/05/18 01:01:34;;;;;;;18.35;8.18;;;;;;;13.07;nan;-24181.84;4994910;28;20204;-66
2023/05/18 01:04:01;;;;;;;21.67;8.23;;;;;;;12.85;nan;-24175.94;4995157;28;20642;-65
2023/05/18 01:06:31;;;;;;;22.08;8.80;;;;;;;12.91;nan;-24177.47;4995426;28;20195;-66
2023/05/18 01:08:58;;;;;;;27.52;10.10;;;;;;;13.15;nan;-24184.09;4995345;28;20169;-66
2023/05/18 01:11:43;;;;;;;18.17;7.95;;;;;;;13.15;nan;-24184.22;4994889;28;20271;-65
2023/05/18 01:14:28;;;;;;;21.70;8.75;;;;;;;13.15;nan;-24184.22;4999200;28;20199;-65
2023/05/18 01:17:00;;;;;;;20.85;8.52;;;;;;;13.03;nan;-24180.84;4995181;28;20188;-66
2023/05/18 01:19:50;;;;;;;24.58;8.95;;;;;;;13.12;nan;-24183.25;4995196;28;20168;-64
2023/05/18 01:22:47;;;;;;;17.17;8.02;;;;;;;12.80;nan;-24174.53;4994936;28;20256;-65
2023/05/18 01:25:39;;;;;;;18.30;8.20;;;;;;;12.99;nan;-24179.59;4995271;28;20254;-65
2023/05/18 01:28:12;;;;;;;16.25;8.00;;;;;;;13.09;nan;-24182.53;4995241;28;20596;-67
2023/05/18 01:30:40;;;;;;;18.67;8.43;;;;;;;12.93;nan;-24178.03;4995127;28;20250;-66
2023/05/18 01:33:19;;;;;;;21.73;7.75;;;;;;;12.98;nan;-24179.44;4994979;28;20172;-71
2023/05/18 01:35:47;;;;;;;17.15;7.82;;;;;;;12.83;nan;-24175.22;4958946;28;20267;-66
2023/05/18 01:38:17;;;;;;;20.27;7.28;;;;;;;13.05;nan;-24181.41;4781455;28;20827;-66
2023/05/18 01:41:03;;;;;;;21.92;8.55;;;;;;;13.04;nan;-24181.13;4981811;28;20184;-70
2023/05/18 01:43:45;;;;;;;15.48;7.85;;;;;;;12.89;nan;-24176.78;4994732;28;20630;-68
2023/05/18 01:46:40;;;;;;;18.38;8.68;;;;;;;13.02;nan;-24180.44;4995324;28;20196;-69
2023/05/18 01:49:15;;;;;;;16.63;8.05;;;;;;;12.92;nan;-24177.75;4999176;28;20197;-66
2023/05/18 01:51:44;;;;;;;19.15;8.57;;;;;;;12.78;nan;-24173.81;4994061;28;20196;-64
2023/05/18 01:54:15;;;;;;;17.50;8.18;;;;;;;12.76;nan;-24173.41;4994628;28;20610;-67
2023/05/18 01:56:42;;;;;;;17.65;8.57;;;;;;;12.66;nan;-24170.59;4994084;28;20745;-67
2023/05/18 01:59:07;;;;;;;19.60;8.52;;;;;;;12.90;nan;-24177.19;4994687;28;20634;-64
2023/05/18 02:01:33;;;;;;;18.88;7.78;;;;;;;12.97;nan;-24179.16;4994512;28;20671;-66
2023/05/18 02:03:58;;;;;;;14.43;7.57;;;;;;;12.98;nan;-24179.31;4994159;28;20164;-66
2023/05/18 02:06:23;;;;;;;22.05;7.68;;;;;;;12.65;nan;-24170.31;4994313;28;20502;-64
2023/05/18 02:08:50;;;;;;;17.95;7.13;;;;;;;12.72;nan;-24172.13;4994361;28;20239;-66
2023/05/18 02:11:15;;;;;;;18.40;7.55;;;;;;;12.86;nan;-24176.06;4994733;28;20249;-67
2023/05/18 02:13:41;;;;;;;15.23;7.40;;;;;;;12.81;nan;-24174.81;4994484;28;20224;-64
2023/05/18 02:16:06;;;;;;;21.73;7.32;;;;;;;12.81;nan;-24174.66;4994616;28;20234;-66
2023/05/18 02:18:35;;;;;;;19.70;7.38;;;;;;;12.92;nan;-24177.75;4994491;28;20169;-67
2023/05/18 02:21:01;;;;;;;16.08;8.05;;;;;;;12.80;nan;-24174.38;4994054;28;20180;-66
2023/05/18 02:23:27;;;;;;;15.40;7.28;;;;;;;12.69;nan;-24171.28;4994390;28;20169;-67
2023/05/18 02:25:55;;;;;;;15.38;8.07;;;;;;;12.77;nan;-24173.69;4996227;28;20185;-65
2023/05/18 02:28:21;;;;;;;17.20;7.07;;;;;;;13.00;nan;-24179.88;4993807;28;20263;-65
2023/05/18 02:30:47;;;;;;;22.35;8.20;;;;;;;13.19;nan;-24185.22;4993895;28;20720;-66
2023/05/18 02:33:12;;;;;;;16.67;7.85;;;;;;;12.94;nan;-24178.31;4993856;28;20172;-66
2023/05/18 02:35:39;;;;;;;15.38;7.68;;;;;;;13.26;nan;-24187.31;4994286;28;20172;-65
2023/05/18 02:38:05;;;;;;;12.98;6.95;;;;;;;13.33;nan;-24189.00;4993911;28;20181;-67
2023/05/18 02:40:30;;;;;;;17.88;8.27;;;;;;;13.34;nan;-24189.28;4993814;28;20176;-66
2023/05/18 02:42:56;;;;;;;17.45;7.28;;;;;;;13.40;nan;-24191.13;4993959;28;20208;-66
2023/05/18 02:45:21;;;;;;;16.70;7.82;;;;;;;13.31;nan;-24188.44;4993625;28;20227;-67
2023/05/18 02:47:47;;;;;;;18.00;8.30;;;;;;;13.12;nan;-24183.25;4993679;28;20659;-66
2023/05/18 02:50:13;;;;;;;17.13;7.95;;;;;;;13.43;nan;-24191.81;4992330;28;20197;-66
2023/05/18 02:52:38;;;;;;;16.05;6.63;;;;;;;13.46;nan;-24192.66;4993806;28;20193;-65
2023/05/18 02:55:05;;;;;;;19.23;7.95;;;;;;;13.50;nan;-24193.78;4993484;28;20173;-66
2023/05/18 02:57:31;;;;;;;16.90;7.65;;;;;;;13.19;nan;-24185.34;4993486;28;20173;-66
2023/05/18 02:59:57;;;;;;;22.88;8.65;;;;;;;13.45;nan;-24192.53;4993902;28;20168;-66
2023/05/18 03:02:23;;;;;;;18.88;7.65;;;;;;;13.30;nan;-24188.16;4997516;28;20264;-67
2023/05/18 03:04:56;;;;;;;16.90;7.88;;;;;;;13.34;nan;-24189.28;4992981;28;20208;-67
2023/05/18 03:07:26;;;;;;;13.23;6.32;;;;;;;13.51;nan;-24194.19;4993030;28;20546;-65
2023/05/18 03:09:51;;;;;;;16.17;7.57;;;;;;;13.64;nan;-24197.72;4993270;28;20207;-66
2023/05/18 03:12:17;;;;;;;18.58;8.55;;;;;;;13.35;nan;-24189.72;4993034;28;20168;-65
2023/05/18 03:14:42;;;;;;;19.52;7.90;;;;;;;13.38;nan;-24190.56;4993135;28;20179;-67
2023/05/18 03:17:08;;;;;;;21.58;7.88;;;;;;;13.73;nan;-24200.09;4992897;28;20686;-64
2023/05/18 03:19:34;;;;;;;19.63;7.75;;;;;;;13.73;nan;-24200.25;4993050;28;20681;-65
2023/05/18 03:21:59;;;;;;;18.38;8.75;;;;;;;13.72;nan;-24199.97;4995352;28;20185;-64
2023/05/18 03:24:28;;;;;;;18.30;8.20;;;;;;;13.70;nan;-24199.53;4993153;28;20185;-67
2023/05/18 03:26:55;;;;;;;15.82;7.40;;;;;;;13.50;nan;-24193.78;4992850;28;20184;-67
2023/05/18 03:29:22;;;;;;;16.45;7.40;;;;;;;13.75;nan;-24200.81;4992969;28;20181;-64
2023/05/18 03:31:47;;;;;;;18.98;8.00;;;;;;;13.45;nan;-24192.53;4992597;28;20643;-67
2023/05/18 03:34:13;;;;;;;17.20;8.02;;;;;;;13.52;nan;-24194.34;4992868;28;20212;-66
2023/05/18 03:36:38;;;;;;;20.90;9.15;;;;;;;13.75;nan;-24200.66;4995367;28;20548;-67
2023/05/18 03:39:07;;;;;;;22.30;8.70;;;;;;;13.31;nan;-24188.44;4993715;28;20176;-66
2023/05/18 03:41:32;;;;;;;20.50;8.70;;;;;;;13.67;nan;-24198.56;4992538;28;20200;-65
2023/05/18 03:43:58;;;;;;;25.10;9.50;;;;;;;13.37;nan;-24190.13;4992718;28;20217;-66
2023/05/18 03:46:23;;;;;;;20.95;8.88;;;;;;;13.49;nan;-24193.63;4991972;28;20200;-67
2023/05/18 03:48:49;;;;;;;19.63;9.07;;;;;;;13.52;nan;-24194.34;4992780;28;20173;-66
2023/05/18 03:51:15;;;;;;;20.08;8.90;;;;;;;13.69;nan;-24199.13;4992540;28;20209;-66
2023/05/18 03:53:41;;;;;;;21.00;7.93;;;;;;;13.68;nan;-24198.97;4992603;28;20179;-65
2023/05/18 03:56:07;;;;;;;21.45;8.60;;;;;;;13.65;nan;-24198.13;4992833;28;20188;-65
2023/05/18 03:58:32;;;;;;;20.50;9.70;;;;;;;13.66;nan;-24198.41;4992493;28;20177;-65
2023/05/18 04:00:59;;;;;;;16.05;7.30;;;;;;;13.58;nan;-24196.16;4992145;28;20173;-65
2023/05/18 04:03:25;;;;;;;17.80;8.93;;;;;;;13.54;nan;-24194.91;4992632;28;20214;-66
2023/05/18 04:05:52;;;;;;;21.75;9.18;;;;;;;13.24;nan;-24186.75;4992443;28;20180;-64
2023/05/18 04:08:19;;;;;;;21.30;9.77;;;;;;;13.64;nan;-24197.72;4991053;28;20701;-66
2023/05/18 04:10:44;;;;;;;20.00;8.60;;;;;;;13.78;nan;-24201.63;4992273;28;20679;-65
2023/05/18 04:13:11;;;;;;;19.77;8.85;;;;;;;13.69;nan;-24199.13;4991956;28;20169;-66
2023/05/18 04:15:36;;;;;;;24.17;9.50;;;;;;;13.87;nan;-24204.03;4992331;28;20208;-66
2023/05/18 04:18:02;;;;;;;29.33;10.73;;;;;;;13.79;nan;-24201.91;4994361;28;20199;-67
2023/05/18 04:20:28;;;;;;;23.23;10.15;;;;;;;13.57;nan;-24195.75;4992618;28;20239;-66
2023/05/18 04:22:56;;;;;;;22.90;9.93;;;;;;;13.83;nan;-24202.91;4992660;28;20180;-65
2023/05/18 04:25:26;;;;;;;18.17;9.35;;;;;;;13.60;nan;-24196.59;4992213;28;20218;-65
2023/05/18 04:27:53;;;;;;;23.70;10.02;;;;;;;14.03;nan;-24208.66;4991500;28;20247;-67
2023/05/18 04:30:21;;;;;;;24.77;9.98;;;;;;;14.05;nan;-24209.22;4991598;28;20262;-67
2023/05/18 04:32:46;;;;;;;19.25;9.30;;;;;;;13.95;nan;-24206.28;4993847;28;20608;-67
2023/05/18 04:35:12;;;;;;;18.27;8.18;;;;;;;13.47;nan;-24193.06;4991816;28;20180;-65
2023/05/18 04:37:41;;;;;;;21.52;9.75;;;;;;;13.52;nan;-24194.34;4991751;28;20589;-66
2023/05/18 04:40:15;;;;;;;20.80;9.50;;;;;;;13.44;nan;-24192.09;4997944;28;20176;-64
2023/05/18 04:42:46;;;;;;;18.00;8.80;;;;;;;13.77;nan;-24201.22;5011090;28;20249;-66
2023/05/18 04:45:16;;;;;;;22.63;8.45;;;;;;;13.97;nan;-24206.97;5011138;28;20309;-65
2023/05/18 04:47:45;;;;;;;19.73;8.07;;;;;;;13.69;nan;-24199.25;5009547;28;20231;-67
2023/05/18 04:50:16;;;;;;;20.60;8.43;;;;;;;13.94;nan;-24206.13;5009812;28;20220;-66
2023/05/18 04:52:49;;;;;;;18.25;7.78;;;;;;;13.87;nan;-24204.03;4993059;28;20284;-68
2023/05/18 04:55:18;;;;;;;20.55;8.60;;;;;;;13.94;nan;-24206.00;4992031;28;20271;-65
2023/05/18 04:57:44;;;;;;;16.30;8.20;;;;;;;13.69;nan;-24199.13;4991583;28;20169;-66
2023/05/18 05:00:11;;;;;;;19.50;7.93;;;;;;;13.70;nan;-24199.41;4991355;28;20678;-67
2023/05/18 05:02:37;;;;;;;17.52;8.48;;;;;;;13.97;nan;-24206.84;4991521;28;20172;-68
2023/05/18 05:05:02;;;;;;;17.55;7.75;;;;;;;14.04;nan;-24208.81;4990862;28;20259;-66
2023/05/18 05:07:28;;;;;;;14.70;7.78;;;;;;;14.06;nan;-24209.50;4991356;28;20173;-68
2023/05/18 05:09:53;;;;;;;21.40;8.48;;;;;;;13.85;nan;-24203.59;4991643;28;20177;-65
2023/05/18 05:12:19;;;;;;;16.75;8.32;;;;;;;13.95;nan;-24206.41;4991120;28;20181;-67
2023/05/18 05:14:44;;;;;;;18.35;8.88;;;;;;;14.01;nan;-24208.09;4994762;28;20623;-69
2023/05/18 05:17:11;;;;;;;23.00;9.65;;;;;;;13.95;nan;-24206.28;4994424;28;20181;-66
2023/05/18 05:19:36;;;;;;;19.90;8.48;;;;;;;14.40;nan;-24218.75;4993447;28;20173;-65
2023/05/18 05:22:02;;;;;;;20.58;8.73;;;;;;;14.35;nan;-24217.34;4993555;28;20573;-69
2023/05/18 05:24:27;;;;;;;23.50;8.50;;;;;;;14.37;nan;-24217.94;4994114;28;20176;-65
2023/05/18 05:26:52;;;;;;;20.52;8.95;;;;;;;14.11;nan;-24210.91;4994758;28;20620;-66
2023/05/18 05:29:19;;;;;;;15.88;8.55;;;;;;;14.31;nan;-24216.38;4995234;28;20176;-64
2023/05/18 05:31:44;;;;;;;18.27;8.20;;;;;;;14.13;nan;-24211.47;4993957;28;20204;-65
2023/05/18 05:34:10;;;;;;;17.40;8.02;;;;;;;14.29;nan;-24215.81;4994739;28;20191;-67
2023/05/18 05:36:36;;;;;;;15.98;7.28;;;;;;;14.31;nan;-24216.38;4993924;28;20168;-67
2023/05/18 05:39:01;;;;;;;21.55;7.68;;;;;;;14.09;nan;-24210.34;4994472;28;20188;-66
2023/05/18 05:41:27;;;;;;;14.93;7.32;;;;;;;14.21;nan;-24213.56;4994617;28;20238;-65
2023/05/18 05:43:52;;;;;;;14.80;6.88;;;;;;;14.19;nan;-24212.88;4994516;28;20235;-65
2023/05/18 05:46:18;;;;;;;14.88;7.47;;;;;;;13.91;nan;-24205.28;4994089;28;20691;-64
2023/05/18 05:48:43;;;;;;;12.95;6.88;;;;;;;14.14;nan;-24211.59;4994211;28;20200;-64
2023/05/18 05:51:08;;;;;;;15.63;7.30;;;;;;;13.84;nan;-24203.31;4994253;28;20295;-66
2023/05/18 05:53:34;;;;;;;13.65;7.22;;;;;;;14.14;nan;-24211.75;4994260;28;20587;-68
2023/05/18 05:55:59;;;;;;;17.92;7.22;;;;;;;14.28;nan;-24215.53;4994346;28;20609;-65
2023/05/18 05:58:25;;;;;;;16.38;7.50;;;;;;;14.08;nan;-24209.91;4994360;28;20215;-67
2023/05/18 06:00:50;;;;;;;17.45;7.65;;;;;;;14.17;nan;-24212.44;4994262;28;20231;-66
2023/05/18 06:03:15;;;;;;;16.08;7.75;;;;;;;14.30;nan;-24215.94;4994450;28;20220;-67
2023/05/18 06:05:41;;;;;;;16.35;8.02;;;;;;;14.43;nan;-24219.75;4993988;28;20642;-71
2023/05/18 06:08:06;;;;;;;16.58;7.50;;;;;;;14.40;nan;-24218.91;4994323;28;20231;-65
2023/05/18 06:10:32;;;;;;;17.75;8.52;;;;;;;14.52;nan;-24222.13;4994961;28;20243;-68
2023/05/18 06:12:57;;;;;;;12.95;7.55;;;;;;;14.48;nan;-24221.00;4994589;28;20687;-67
2023/05/18 06:15:23;;;;;;;16.92;8.25;;;;;;;14.65;nan;-24225.78;4994389;28;20172;-67
2023/05/18 06:17:48;;;;;;;16.80;8.30;;;;;;;14.43;nan;-24219.75;4994211;28;20257;-66
2023/05/18 06:20:14;;;;;;;15.90;8.63;;;;;;;14.36;nan;-24217.78;4994378;28;20208;-65
2023/05/18 06:22:39;;;;;;;14.35;7.65;;;;;;;14.18;nan;-24212.72;4994075;28;20623;-67
2023/05/18 06:25:05;;;;;;;18.27;8.27;;;;;;;14.57;nan;-24223.53;4760074;28;20646;-67
2023/05/18 06:27:31;;;;;;;17.15;8.02;;;;;;;14.82;nan;-24230.53;4941889;28;20193;-68
2023/05/18 06:29:56;;;;;;;14.05;7.95;;;;;;;14.95;nan;-24234.19;4994335;28;20613;-66
2023/05/18 06:32:22;;;;;;;15.57;7.90;;;;;;;14.65;nan;-24225.78;4993987;28;20563;-66
2023/05/18 06:34:49;;;;;;;15.18;7.10;;;;;;;15.30;nan;-24243.72;4993929;28;20178;-65
2023/05/18 06:37:16;;;;;;;14.07;7.25;;;;;;;15.36;nan;-24245.38;4993585;28;20212;-66
2023/05/18 06:39:41;;;;;;;16.88;7.28;;;;;;;15.66;nan;-24253.78;4994305;28;20165;-68
2023/05/18 06:42:07;;;;;;;17.45;8.23;;;;;;;15.91;nan;-24260.66;4992936;28;20251;-68
2023/05/18 06:44:34;;;;;;;16.45;9.00;;;;;;;16.11;nan;-24266.09;4993911;28;20661;-68
2023/05/18 06:46:59;;;;;;;17.40;8.98;;;;;;;16.22;nan;-24269.19;4993726;28;20363;-65
2023/05/18 06:49:25;;;;;;;19.05;9.13;;;;;;;16.29;nan;-24271.13;4993498;28;20671;-69
2023/05/18 06:51:50;;;;;;;17.63;9.13;;;;;;;16.52;nan;-24277.56;4994113;28;20208;-68
2023/05/18 06:54:16;;;;;;;17.08;9.05;;;;;;;16.54;nan;-24278.13;4993791;28;20254;-67
2023/05/18 06:56:42;;;;;;;13.80;7.63;;;;;;;16.35;nan;-24272.81;4993469;28;20173;-68
2023/05/18 06:59:07;;;;;;;16.98;8.52;;;;;;;16.51;nan;-24277.16;4993507;28;20565;-67
2023/05/18 07:01:33;;;;;;;12.65;7.28;;;;;;;16.42;nan;-24274.78;4993452;28;20260;-66
2023/05/18 07:03:58;;;;;;;17.10;7.82;;;;;;;16.09;nan;-24265.69;4992833;28;20319;-67
2023/05/18 07:06:24;;;;;;;13.48;7.47;;;;;;;16.33;nan;-24272.25;4991629;28;20327;-66
2023/05/18 07:08:49;;;;;;;17.45;8.25;;;;;;;16.12;nan;-24266.38;4990473;28;20188;-67
2023/05/18 07:11:15;;;;;;;17.63;8.10;;;;;;;16.22;nan;-24269.19;4991910;28;20683;-68
2023/05/18 07:13:41;;;;;;;19.40;9.18;;;;;;;16.03;nan;-24263.88;4992449;28;20173;-65
2023/05/18 07:16:06;;;;;;;18.60;8.57;;;;;;;16.57;nan;-24278.97;4992357;28;20173;-69
2023/05/18 07:21:01;;;;;;;22.55;9.32;;;;;;;16.43;nan;-24275.06;5011950;28;20212;-69
2023/05/18 07:23:27;;;;;;;25.17;9.90;;;;;;;16.41;nan;-24274.34;5012181;28;20188;-71
2023/05/18 07:25:52;;;;;;;22.77;10.35;;;;;;;16.32;nan;-24272.13;5014951;28;20202;-70
2023/05/18 07:28:18;;;;;;;19.05;9.13;;;;;;;16.07;nan;-24265.00;5008250;28;20271;-69
2023/05/18 07:30:43;;;;;;;16.73;7.80;;;;;;;16.22;nan;-24269.31;5011833;28;20206;-69
2023/05/18 07:33:09;;;;;;;14.45;6.43;;;;;;;16.16;nan;-24267.50;5011508;28;20630;-68
2023/05/18 07:35:35;;;;;;;12.52;5.80;;;;;;;16.31;nan;-24271.84;5011329;28;20259;-69
2023/05/18 07:38:00;;;;;;;11.82;5.60;;;;;;;16.38;nan;-24273.50;5010121;28;20172;-69
2023/05/18 07:40:26;;;;;;;12.27;5.55;;;;;;;16.07;nan;-24265.00;5010915;28;20502;-70
2023/05/18 07:42:51;;;;;;;12.63;5.57;;;;;;;16.56;nan;-24278.69;5011069;28;20227;-68
2023/05/18 07:45:17;;;;;;;10.70;5.93;;;;;;;16.59;nan;-24279.53;5011338;28;20175;-69
2023/05/18 07:47:42;;;;;;;8.52;5.10;;;;;;;16.74;nan;-24283.59;5011156;28;20573;-69
2023/05/18 07:50:08;;;;;;;9.10;5.22;;;;;;;16.75;nan;-24283.88;5011311;28;20202;-69
2023/05/18 07:52:34;;;;;;;8.02;4.60;;;;;;;16.94;nan;-24289.03;5013685;28;20180;-69
2023/05/18 07:54:59;;;;;;;6.93;3.85;;;;;;;16.68;nan;-24282.03;5011134;28;20706;-69
2023/05/18 07:57:25;;;;;;;9.48;4.32;;;;;;;16.76;nan;-24284.28;5009886;28;20175;-70
2023/05/18 07:59:51;;;;;;;10.60;4.78;;;;;;;16.77;nan;-24284.41;5010368;28;20226;-69
2023/05/18 08:02:18;;;;;;;6.10;4.00;;;;;;;16.67;nan;-24281.78;5010558;28;20653;-69
2023/05/18 08:04:44;;;;;;;6.60;4.25;;;;;;;16.79;nan;-24284.97;5010564;28;20684;-69
2023/05/18 08:07:11;;;;;;;8.20;4.43;;;;;;;16.78;nan;-24284.84;5012029;28;20174;-70
2023/05/18 08:09:37;;;;;;;9.50;4.18;;;;;;;16.71;nan;-24282.75;5010835;28;20172;-69
2023/05/18 08:12:03;;;;;;;6.80;4.03;;;;;;;16.82;nan;-24285.81;5012594;28;20618;-68
2023/05/18 08:14:28;;;;;;;7.47;4.15;;;;;;;17.32;nan;-24299.63;5012530;28;20639;-68
2023/05/18 08:16:54;;;;;;;8.00;4.18;;;;;;;17.33;nan;-24299.91;5011077;28;20200;-70
2023/05/18 08:19:19;;;;;;;6.78;3.92;;;;;;;17.06;nan;-24290.50;5012009;28;20227;-69
2023/05/18 08:21:45;;;;;;;6.40;3.90;;;;;;;17.39;nan;-24299.72;5015158;28;20627;-71
2023/05/18 08:24:10;;;;;;;6.50;3.75;;;;;;;17.58;nan;-24305.00;5010728;28;20214;-69
2023/05/18 08:26:36;;;;;;;7.50;4.10;;;;;;;17.63;nan;-23661.69;5011433;28;20544;-71
2023/05/18 08:29:08;;;;;;;7.45;4.20;;;;;;;17.70;nan;-22373.91;5010711;28;20176;-70
2023/05/18 08:31:36;;;;;;;6.22;4.07;;;;;;;17.84;nan;-22054.69;5012060;28;20199;-68
2023/05/18 08:34:03;;;;;;;6.45;4.35;;;;;;;17.88;nan;-21087.81;5011941;28;20183;-69
2023/05/18 08:36:30;;;;;;;6.35;4.13;;;;;;;17.63;nan;-22694.59;5011894;28;20631;-71
2023/05/18 08:38:55;;;;;;;6.88;4.00;;;;;;;17.41;nan;-21722.13;5011845;28;20574;-70
2023/05/18 08:41:43;;;;;;;6.63;4.03;;;;;;;17.62;nan;-21082.03;5011898;28;20183;-68
2023/05/18 08:44:19;;;;;;;8.70;3.97;;;;;;;17.73;nan;-20116.28;5010467;28;20176;-69
2023/05/18 08:46:47;;;;;;;6.65;3.88;;;;;;;17.64;nan;-18823.53;5012200;28;20226;-70
2023/05/18 08:49:16;;;;;;;5.95;3.72;;;;;;;18.03;nan;-16245.84;5015387;28;20186;-70
2023/05/18 08:51:45;;;;;;;5.68;3.72;;;;;;;17.95;nan;-15598.09;5015700;28;20203;-69
2023/05/18 08:54:18;;;;;;;6.18;3.72;;;;;;;17.98;nan;-15598.56;5015804;28;20598;-70
2023/05/18 08:56:45;;;;;;;6.15;3.85;;;;;;;18.14;nan;-8802.50;5014351;28;20180;-70
2023/05/18 08:59:13;;;;;;;6.10;3.80;;;;;;;18.00;nan;-11069.25;5015321;28;20173;-70
2023/05/18 09:01:39;;;;;;;8.07;4.10;;;;;;;17.86;nan;-12686.47;5013864;28;20172;-69
2023/05/18 09:04:05;;;;;;;9.75;4.57;;;;;;;18.24;nan;-15602.00;5015209;28;20238;-71
2023/05/18 09:06:33;;;;;;;6.25;3.65;;;;;;;18.61;nan;-11397.16;5015526;28;20176;-70
2023/05/18 09:09:03;;;;;;;5.63;3.58;;;;;;;18.87;nan;-9128.81;5015460;28;20176;-70
2023/05/18 09:11:30;;;;;;;8.30;3.92;;;;;;;18.79;nan;-7181.78;5015084;28;20204;-71
2023/05/18 09:13:57;;;;;;;4.15;3.42;;;;;;;18.77;nan;7129.78;5015160;28;20183;-69
2023/05/18 09:16:23;;;;;;;5.05;3.30;;;;;;;19.20;nan;3879.38;5015054;28;20694;-69
2023/05/18 09:18:49;;;;;;;5.78;3.47;;;;;;;19.49;nan;3558.44;5015191;28;20258;-69
2023/05/18 09:21:14;;;;;;;6.03;3.55;;;;;;;19.74;nan;3236.75;5020598;28;20271;-70
2023/05/18 09:23:41;;;;;;;5.70;3.03;;;;;;;19.90;nan;8462.38;5015393;28;20184;-69
2023/05/18 09:26:11;;;;;;;5.18;3.65;;;;;;;19.81;nan;10420.69;5014968;28;20176;-70
2023/05/18 09:28:39;;;;;;;5.15;2.90;;;;;;;19.89;nan;18605.28;5013824;28;20191;-70
2023/05/18 09:31:07;;;;;;;4.13;2.70;;;;;;;19.96;nan;25169.38;5014834;28;20330;-69
2023/05/18 09:33:37;;;;;;;12.65;3.15;;;;;;;20.07;nan;31750.50;5014694;28;20522;-69
2023/05/18 09:36:05;;;;;;;5.20;3.20;;;;;;;20.01;nan;28128.75;5014800;28;20303;-70
2023/05/18 09:38:36;;;;;;;6.57;3.08;;;;;;;20.31;nan;36707.09;5014185;28;20190;-69
2023/05/18 09:41:01;;;;;;;7.25;4.05;;;;;;;20.22;nan;44286.81;5014499;28;20165;-69
2023/05/18 09:43:27;;;;;;;7.82;3.70;;;;;;;20.10;nan;44173.44;5014275;28;20250;-70
2023/05/18 09:45:52;;;;;;;5.72;3.15;;;;;;;19.82;nan;50522.47;5014970;28;20218;-70
2023/05/18 09:48:17;;;;;;;5.22;3.30;;;;;;;19.58;nan;55209.31;5013754;28;20184;-70
2023/05/18 09:50:44;;;;;;;4.60;2.88;;;;;;;19.72;nan;54279.88;5022367;28;20705;-68
2023/05/18 09:53:11;;;;;;;5.32;3.45;;;;;;;19.94;nan;57413.53;5023771;28;20176;-70
2023/05/18 09:55:44;;;;;;;7.25;3.47;;;;;;;19.92;nan;59802.84;5022992;28;20172;-69
2023/05/18 09:58:10;;;;;;;8.05;3.63;;;;;;;19.82;nan;58848.66;5015622;28;20185;-70
2023/05/18 10:00:48;;;;;;;4.72;3.20;;;;;;;19.93;nan;58342.41;5025567;28;20176;-70
2023/05/18 10:03:21;;;;;;;4.65;2.53;;;;;;;20.35;nan;58436.47;5018286;28;20191;-70
2023/05/18 10:05:48;;;;;;;4.38;2.92;;;;;;;20.45;nan;59250.69;5019852;28;20183;-70
2023/05/18 10:08:15;;;;;;;5.18;3.13;;;;;;;20.96;nan;59755.03;5020753;28;20677;-70
2023/05/18 10:10:47;;;;;;;3.58;2.40;;;;;;;21.06;nan;60098.97;5021613;28;20651;-71
2023/05/18 10:13:16;;;;;;;3.60;2.65;;;;;;;21.08;nan;60347.91;5020392;28;20194;-69
2023/05/18 10:16:02;;;;;;;5.00;2.70;;;;;;;21.27;nan;60703.09;5015299;28;20180;-69
2023/05/18 10:18:29;;;;;;;4.03;2.63;;;;;;;21.09;nan;61052.34;5013132;28;20209;-69
2023/05/18 10:20:57;;;;;;;5.20;2.40;;;;;;;21.23;nan;60968.81;5021663;28;20277;-69
2023/05/18 10:23:24;;;;;;;3.92;2.90;;;;;;;21.18;nan;61473.00;5022335;28;20184;-70
2023/05/18 10:25:51;;;;;;;10.60;5.15;;;;;;;21.22;nan;61139.75;5019906;28;20510;-70
2023/05/18 10:28:24;;;;;;;3.50;2.33;;;;;;;20.54;nan;61237.75;5020379;28;20258;-69
2023/05/18 10:30:51;;;;;;;4.90;2.55;;;;;;;20.31;nan;61202.03;5017834;28;20234;-70
2023/05/18 10:33:18;;;;;;;3.40;2.30;;;;;;;20.41;nan;61324.88;5022718;28;20175;-70
2023/05/18 10:35:48;;;;;;;2.67;1.98;;;;;;;20.16;nan;61374.50;5016416;28;20191;-69
2023/05/18 10:38:19;;;;;;;3.28;2.28;;;;;;;20.25;nan;61358.69;5018517;28;20249;-69
2023/05/18 10:40:47;;;;;;;3.33;2.58;;;;;;;20.00;nan;61081.53;5014455;28;20734;-70
2023/05/18 10:43:14;;;;;;;7.63;2.33;;;;;;;20.03;nan;61219.75;5018563;28;20270;-70
2023/05/18 10:45:40;;;;;;;3.60;2.47;;;;;;;20.00;nan;61273.44;5015187;28;20180;-69
2023/05/18 10:48:08;;;;;;;3.65;2.38;;;;;;;20.17;nan;61345.03;5011501;28;20247;-70
2023/05/18 10:50:37;;;;;;;3.58;2.30;;;;;;;19.95;nan;61366.91;5015987;28;20639;-70
2023/05/18 10:53:05;;;;;;;2.80;2.30;;;;;;;20.06;nan;61374.13;5022864;28;20195;-71
2023/05/18 10:55:30;;;;;;;5.63;2.30;;;;;;;19.95;nan;61366.91;5019054;28;20187;-70
2023/05/18 10:58:03;;;;;;;3.75;2.53;;;;;;;19.82;nan;61409.25;5019745;28;20233;-69
2023/05/18 11:00:33;;;;;;;4.55;2.50;;;;;;;19.95;nan;61444.69;5018531;28;20274;-71
2023/05/18 11:03:00;;;;;;;3.28;2.33;;;;;;;19.75;nan;61349.50;5018781;28;20180;-69
2023/05/18 11:05:26;;;;;;;4.25;2.45;;;;;;;19.58;nan;61486.38;5014002;28;20190;-70
2023/05/18 11:08:08;;;;;;;3.53;2.40;;;;;;;19.45;nan;61173.72;5020790;28;20188;-70
2023/05/18 11:10:45;;;;;;;3.35;2.30;;;;;;;19.41;nan;61138.09;5019358;28;20199;-70
2023/05/18 11:13:13;;;;;;;10.68;2.33;;;;;;;19.36;nan;60500.44;5010907;28;20267;-70
2023/05/18 11:15:54;;;;;;;2.97;2.33;;;;;;;18.98;nan;58771.94;5016209;28;20275;-70
2023/05/18 11:18:25;;;;;;;3.38;2.28;;;;;;;18.77;nan;59514.75;5015681;28;20187;-70
2023/05/18 11:20:51;;;;;;;4.20;2.33;;;;;;;18.83;nan;60595.16;5018303;28;20785;-70
2023/05/18 11:23:19;;;;;;;5.70;2.33;;;;;;;18.69;nan;60708.88;5021571;28;20277;-70
2023/05/18 11:25:47;;;;;;;4.90;2.70;;;;;;;18.47;nan;60379.06;5022768;28;20171;-71
2023/05/18 11:28:14;;;;;;;3.58;2.60;;;;;;;18.59;nan;60335.00;5013908;28;20190;-70
2023/05/18 11:30:39;;;;;;;4.15;2.28;;;;;;;18.68;nan;60418.00;5018704;28;20283;-72
2023/05/18 11:33:09;;;;;;;6.20;2.70;;;;;;;18.31;nan;60658.63;5017639;28;20627;-70
2023/05/18 11:36:07;;;;;;;3.33;2.33;;;;;;;18.53;nan;60595.28;5018891;28;20192;-70
2023/05/18 11:39:03;;;;;;;4.10;2.63;;;;;;;18.57;nan;60363.81;5014820;28;20210;-71
2023/05/18 11:41:31;;;;;;;4.45;2.78;;;;;;;18.32;nan;60236.22;5017217;28;20184;-69
2023/05/18 11:44:08;;;;;;;4.65;2.72;;;;;;;18.19;nan;59856.78;5020967;28;20188;-70